sensor_id;sensor_type;location;lat;lon;timestamp;pressure;altitude;pressure_sealevel;temperature;humidity
51293;BME280;37377;45.186;9.778;2024-01-10T00:01:18;102299.91;;;4.80;63.12
51293;BME280;37377;45.186;9.778;2024-01-10T00:04:09;102306.69;;;4.56;63.05
51293;BME280;37377;45.186;9.778;2024-01-10T00:06:46;102298.50;;;4.70;64.33
51293;BME280;37377;45.186;9.778;2024-01-10T00:09:53;102293.03;;;4.79;62.39
51293;BME280;37377;45.186;9.778;2024-01-10T00:12:30;102294.81;;;4.77;63.42
51293;BME280;37377;45.186;9.778;2024-01-10T00:15:09;102296.44;;;4.81;61.70
51293;BME280;37377;45.186;9.778;2024-01-10T00:18:37;102291.34;;;4.78;61.95
51293;BME280;37377;45.186;9.778;2024-01-10T00:21:13;102295.56;;;4.80;61.83
51293;BME280;37377;45.186;9.778;2024-01-10T00:23:42;102296.81;;;4.69;61.25
51293;BME280;37377;45.186;9.778;2024-01-10T00:26:31;102293.94;;;4.78;60.11
51293;BME280;37377;45.186;9.778;2024-01-10T00:29:04;102289.72;;;4.74;58.99
51293;BME280;37377;45.186;9.778;2024-01-10T00:31:48;102301.91;;;4.72;59.33
51293;BME280;37377;45.186;9.778;2024-01-10T00:34:56;102300.41;;;4.63;59.44
51293;BME280;37377;45.186;9.778;2024-01-10T00:37:37;102305.78;;;4.57;59.92
51293;BME280;37377;45.186;9.778;2024-01-10T00:40:10;102305.19;;;4.47;60.47
51293;BME280;37377;45.186;9.778;2024-01-10T00:42:37;102307.13;;;4.41;61.44
51293;BME280;37377;45.186;9.778;2024-01-10T00:45:05;102302.78;;;4.41;61.41
51293;BME280;37377;45.186;9.778;2024-01-10T00:47:34;102301.44;;;4.28;62.39
51293;BME280;37377;45.186;9.778;2024-01-10T00:50:10;102305.88;;;4.24;62.51
51293;BME280;37377;45.186;9.778;2024-01-10T00:52:40;102305.81;;;4.26;62.27
51293;BME280;37377;45.186;9.778;2024-01-10T00:55:11;102295.31;;;4.31;61.81
51293;BME280;37377;45.186;9.778;2024-01-10T00:57:39;102303.03;;;4.32;61.54
51293;BME280;37377;45.186;9.778;2024-01-10T01:00:31;102306.47;;;4.34;61.29
51293;BME280;37377;45.186;9.778;2024-01-10T01:03:02;102318.59;;;4.32;61.91
51293;BME280;37377;45.186;9.778;2024-01-10T01:05:37;102310.69;;;4.37;60.74
51293;BME280;37377;45.186;9.778;2024-01-10T01:08:05;102320.66;;;4.21;62.49
51293;BME280;37377;45.186;9.778;2024-01-10T01:10:43;102323.16;;;4.24;62.08
51293;BME280;37377;45.186;9.778;2024-01-10T01:13:40;102329.06;;;3.96;62.00
51293;BME280;37377;45.186;9.778;2024-01-10T01:16:07;102336.84;;;3.96;62.36
51293;BME280;37377;45.186;9.778;2024-01-10T01:19:01;102335.00;;;4.02;62.73
51293;BME280;37377;45.186;9.778;2024-01-10T01:21:28;102337.69;;;3.97;63.42
51293;BME280;37377;45.186;9.778;2024-01-10T01:23:59;102336.25;;;3.87;63.16
51293;BME280;37377;45.186;9.778;2024-01-10T01:26:34;102339.69;;;3.87;62.85
51293;BME280;37377;45.186;9.778;2024-01-10T01:29:09;102340.75;;;3.80;63.96
51293;BME280;37377;45.186;9.778;2024-01-10T01:31:36;102342.56;;;3.77;62.82
51293;BME280;37377;45.186;9.778;2024-01-10T01:34:17;102344.06;;;3.85;64.04
51293;BME280;37377;45.186;9.778;2024-01-10T01:36:56;102349.34;;;3.82;64.64
51293;BME280;37377;45.186;9.778;2024-01-10T01:39:23;102342.56;;;3.77;63.72
51293;BME280;37377;45.186;9.778;2024-01-10T01:41:55;102339.34;;;3.67;64.79
51293;BME280;37377;45.186;9.778;2024-01-10T01:48:19;102340.34;;;3.63;66.32
51293;BME280;37377;45.186;9.778;2024-01-10T01:51:20;102346.00;;;3.77;66.73
51293;BME280;37377;45.186;9.778;2024-01-10T01:54:41;102340.63;;;3.85;64.59
51293;BME280;37377;45.186;9.778;2024-01-10T01:57:08;102339.22;;;3.73;66.31
51293;BME280;37377;45.186;9.778;2024-01-10T02:00:14;102351.56;;;3.62;67.67
51293;BME280;37377;45.186;9.778;2024-01-10T02:05:17;102344.63;;;3.64;64.86
51293;BME280;37377;45.186;9.778;2024-01-10T02:08:35;102340.34;;;3.61;64.50
51293;BME280;37377;45.186;9.778;2024-01-10T02:11:29;102337.88;;;3.57;64.32
51293;BME280;37377;45.186;9.778;2024-01-10T02:13:58;102338.50;;;3.66;64.76
51293;BME280;37377;45.186;9.778;2024-01-10T02:16:30;102327.75;;;3.82;64.27
51293;BME280;37377;45.186;9.778;2024-01-10T02:20:13;102322.56;;;3.82;66.62
51293;BME280;37377;45.186;9.778;2024-01-10T02:23:14;102328.44;;;3.88;66.17
51293;BME280;37377;45.186;9.778;2024-01-10T02:25:55;102337.28;;;3.80;65.96
51293;BME280;37377;45.186;9.778;2024-01-10T02:28:22;102330.63;;;3.71;66.81
51293;BME280;37377;45.186;9.778;2024-01-10T02:31:19;102327.81;;;3.79;65.92
51293;BME280;37377;45.186;9.778;2024-01-10T02:33:48;102339.59;;;3.92;64.49
51293;BME280;37377;45.186;9.778;2024-01-10T02:36:42;102331.53;;;4.03;63.43
51293;BME280;37377;45.186;9.778;2024-01-10T02:39:40;102326.09;;;4.12;63.77
51293;BME280;37377;45.186;9.778;2024-01-10T02:42:07;102328.63;;;4.13;64.91
51293;BME280;37377;45.186;9.778;2024-01-10T02:45:05;102326.63;;;4.24;62.12
51293;BME280;37377;45.186;9.778;2024-01-10T02:47:35;102324.03;;;4.23;61.90
51293;BME280;37377;45.186;9.778;2024-01-10T02:50:14;102323.66;;;4.37;61.15
51293;BME280;37377;45.186;9.778;2024-01-10T02:52:49;102328.72;;;4.41;62.82
51293;BME280;37377;45.186;9.778;2024-01-10T02:55:22;102323.97;;;4.26;64.23
51293;BME280;37377;45.186;9.778;2024-01-10T02:57:54;102321.59;;;4.18;65.59
51293;BME280;37377;45.186;9.778;2024-01-10T03:00:26;102315.09;;;4.35;65.38
51293;BME280;37377;45.186;9.778;2024-01-10T03:11:16;102309.44;;;4.51;60.81
51293;BME280;37377;45.186;9.778;2024-01-10T03:14:28;102305.34;;;4.43;61.24
51293;BME280;37377;45.186;9.778;2024-01-10T03:17:07;102299.63;;;4.61;60.39
51293;BME280;37377;45.186;9.778;2024-01-10T03:19:35;102299.75;;;4.57;60.86
51293;BME280;37377;45.186;9.778;2024-01-10T03:22:04;102295.88;;;4.40;61.74
51293;BME280;37377;45.186;9.778;2024-01-10T03:24:31;102299.91;;;4.21;60.72
51293;BME280;37377;45.186;9.778;2024-01-10T03:27:01;102293.50;;;4.34;63.34
51293;BME280;37377;45.186;9.778;2024-01-10T03:29:33;102287.50;;;4.01;62.00
51293;BME280;37377;45.186;9.778;2024-01-10T03:32:12;102292.78;;;3.98;59.46
51293;BME280;37377;45.186;9.778;2024-01-10T03:34:43;102293.91;;;4.19;59.63
51293;BME280;37377;45.186;9.778;2024-01-10T03:38:10;102296.41;;;4.22;60.02
51293;BME280;37377;45.186;9.778;2024-01-10T03:40:40;102300.06;;;4.15;61.96
51293;BME280;37377;45.186;9.778;2024-01-10T03:43:15;102302.09;;;4.04;61.49
51293;BME280;37377;45.186;9.778;2024-01-10T03:45:52;102297.88;;;4.01;63.25
51293;BME280;37377;45.186;9.778;2024-01-10T03:48:22;102300.25;;;4.09;62.37
51293;BME280;37377;45.186;9.778;2024-01-10T03:51:16;102295.97;;;4.06;61.62
51293;BME280;37377;45.186;9.778;2024-01-10T03:54:54;102296.59;;;4.16;61.32
51293;BME280;37377;45.186;9.778;2024-01-10T03:57:25;102299.06;;;4.20;61.05
51293;BME280;37377;45.186;9.778;2024-01-10T03:59:55;102294.03;;;4.14;61.14
51293;BME280;37377;45.186;9.778;2024-01-10T04:02:26;102301.00;;;4.12;62.59
51293;BME280;37377;45.186;9.778;2024-01-10T04:05:08;102296.06;;;4.03;60.90
51293;BME280;37377;45.186;9.778;2024-01-10T04:09:07;102297.97;;;3.98;62.26
51293;BME280;37377;45.186;9.778;2024-01-10T04:11:37;102298.63;;;4.05;61.07
51293;BME280;37377;45.186;9.778;2024-01-10T04:14:04;102292.78;;;3.98;61.22
51293;BME280;37377;45.186;9.778;2024-01-10T04:16:34;102298.16;;;3.90;60.82
51293;BME280;37377;45.186;9.778;2024-01-10T04:19:04;102294.72;;;3.88;60.91
51293;BME280;37377;45.186;9.778;2024-01-10T04:21:35;102302.09;;;4.04;60.84
51293;BME280;37377;45.186;9.778;2024-01-10T04:24:08;102307.97;;;4.10;60.78
51293;BME280;37377;45.186;9.778;2024-01-10T04:26:49;102316.97;;;3.97;61.57
51293;BME280;37377;45.186;9.778;2024-01-10T04:29:31;102316.91;;;4.00;62.10
51293;BME280;37377;45.186;9.778;2024-01-10T04:31:58;102315.81;;;4.09;62.94
51293;BME280;37377;45.186;9.778;2024-01-10T04:34:48;102320.25;;;4.04;63.25
51293;BME280;37377;45.186;9.778;2024-01-10T04:37:18;102319.69;;;3.92;62.87
51293;BME280;37377;45.186;9.778;2024-01-10T04:39:47;102321.25;;;3.65;63.73
51293;BME280;37377;45.186;9.778;2024-01-10T04:42:14;102327.28;;;3.66;65.33
51293;BME280;37377;45.186;9.778;2024-01-10T04:44:45;102325.59;;;3.65;65.97
51293;BME280;37377;45.186;9.778;2024-01-10T04:47:15;102322.41;;;3.54;65.76
51293;BME280;37377;45.186;9.778;2024-01-10T04:49:42;102322.47;;;3.51;65.40
51293;BME280;37377;45.186;9.778;2024-01-10T04:52:09;102311.28;;;3.50;66.12
51293;BME280;37377;45.186;9.778;2024-01-10T04:54:36;102312.88;;;3.56;66.32
51293;BME280;37377;45.186;9.778;2024-01-10T04:57:04;102314.00;;;3.44;65.71
51293;BME280;37377;45.186;9.778;2024-01-10T04:59:31;102307.16;;;3.41;65.52
51293;BME280;37377;45.186;9.778;2024-01-10T05:01:58;102311.41;;;3.46;65.67
51293;BME280;37377;45.186;9.778;2024-01-10T05:04:25;102312.13;;;3.51;65.70
51293;BME280;37377;45.186;9.778;2024-01-10T05:06:52;102317.28;;;3.51;66.14
51293;BME280;37377;45.186;9.778;2024-01-10T05:09:22;102318.81;;;3.59;65.62
51293;BME280;37377;45.186;9.778;2024-01-10T05:11:49;102316.97;;;3.64;63.55
51293;BME280;37377;45.186;9.778;2024-01-10T05:14:18;102323.94;;;3.61;63.97
51293;BME280;37377;45.186;9.778;2024-01-10T05:16:48;102330.69;;;3.68;63.19
51293;BME280;37377;45.186;9.778;2024-01-10T05:19:15;102329.84;;;3.67;62.84
51293;BME280;37377;45.186;9.778;2024-01-10T05:21:43;102326.47;;;3.64;62.01
51293;BME280;37377;45.186;9.778;2024-01-10T05:24:15;102334.16;;;3.67;63.80
51293;BME280;37377;45.186;9.778;2024-01-10T05:26:42;102338.31;;;3.74;63.11
51293;BME280;37377;45.186;9.778;2024-01-10T05:29:13;102341.97;;;3.65;62.40
51293;BME280;37377;45.186;9.778;2024-01-10T05:31:43;102341.78;;;3.73;62.21
51293;BME280;37377;45.186;9.778;2024-01-10T05:34:10;102347.06;;;3.68;63.24
51293;BME280;37377;45.186;9.778;2024-01-10T05:36:43;102344.44;;;3.70;63.27
51293;BME280;37377;45.186;9.778;2024-01-10T05:39:14;102346.19;;;3.71;62.48
51293;BME280;37377;45.186;9.778;2024-01-10T05:41:43;102349.47;;;3.76;61.76
51293;BME280;37377;45.186;9.778;2024-01-10T05:44:12;102346.22;;;3.68;63.54
51293;BME280;37377;45.186;9.778;2024-01-10T05:46:40;102351.22;;;3.76;64.36
51293;BME280;37377;45.186;9.778;2024-01-10T05:49:08;102350.22;;;3.81;63.60
51293;BME280;37377;45.186;9.778;2024-01-10T05:51:36;102352.69;;;3.86;62.80
51293;BME280;37377;45.186;9.778;2024-01-10T05:54:04;102352.13;;;3.75;64.83
51293;BME280;37377;45.186;9.778;2024-01-10T05:56:34;102355.66;;;3.70;62.31
51293;BME280;37377;45.186;9.778;2024-01-10T05:59:02;102361.91;;;3.62;63.68
51293;BME280;37377;45.186;9.778;2024-01-10T06:01:29;102358.47;;;3.63;62.18
51293;BME280;37377;45.186;9.778;2024-01-10T06:03:57;102357.81;;;3.53;62.14
51293;BME280;37377;45.186;9.778;2024-01-10T06:06:27;102361.91;;;3.62;62.67
51293;BME280;37377;45.186;9.778;2024-01-10T06:08:54;102361.25;;;3.55;63.62
51293;BME280;37377;45.186;9.778;2024-01-10T06:11:21;102363.97;;;3.49;63.79
51293;BME280;37377;45.186;9.778;2024-01-10T06:13:48;102369.28;;;3.43;63.94
51293;BME280;37377;45.186;9.778;2024-01-10T06:16:23;102374.59;;;3.38;65.13
51293;BME280;37377;45.186;9.778;2024-01-10T06:18:50;102381.69;;;3.30;65.94
51293;BME280;37377;45.186;9.778;2024-01-10T06:21:23;102382.28;;;3.03;67.97
51293;BME280;37377;45.186;9.778;2024-01-10T06:24:03;102376.84;;;3.15;68.61
51293;BME280;37377;45.186;9.778;2024-01-10T06:26:33;102376.22;;;3.04;68.92
51293;BME280;37377;45.186;9.778;2024-01-10T06:29:00;102380.97;;;2.83;70.47
51293;BME280;37377;45.186;9.778;2024-01-10T06:31:37;102385.13;;;2.91;69.86
51293;BME280;37377;45.186;9.778;2024-01-10T06:34:04;102389.75;;;2.76;70.54
51293;BME280;37377;45.186;9.778;2024-01-10T06:36:32;102383.06;;;2.66;70.80
51293;BME280;37377;45.186;9.778;2024-01-10T06:39:02;102392.41;;;2.72;71.02
51293;BME280;37377;45.186;9.778;2024-01-10T06:41:29;102385.53;;;2.71;71.72
51293;BME280;37377;45.186;9.778;2024-01-10T06:44:00;102393.53;;;2.60;71.77
51293;BME280;37377;45.186;9.778;2024-01-10T06:46:31;102399.53;;;2.61;71.78
51293;BME280;37377;45.186;9.778;2024-01-10T06:48:58;102397.22;;;2.48;72.44
51293;BME280;37377;45.186;9.778;2024-01-10T06:51:26;102404.03;;;2.51;72.30
51293;BME280;37377;45.186;9.778;2024-01-10T06:53:53;102398.94;;;2.48;72.13
51293;BME280;37377;45.186;9.778;2024-01-10T06:56:27;102399.59;;;2.59;71.86
51293;BME280;37377;45.186;9.778;2024-01-10T06:59:04;102407.38;;;2.56;72.22
51293;BME280;37377;45.186;9.778;2024-01-10T07:01:37;102409.13;;;2.57;72.71
51293;BME280;37377;45.186;9.778;2024-01-10T07:04:13;102414.22;;;2.60;73.70
51293;BME280;37377;45.186;9.778;2024-01-10T07:06:46;102414.03;;;2.69;72.54
51293;BME280;37377;45.186;9.778;2024-01-10T07:09:14;102418.25;;;2.75;72.52
51293;BME280;37377;45.186;9.778;2024-01-10T07:11:49;102425.91;;;2.79;71.55
51293;BME280;37377;45.186;9.778;2024-01-10T07:14:19;102421.72;;;2.72;71.97
51293;BME280;37377;45.186;9.778;2024-01-10T07:16:47;102423.38;;;2.76;71.81
51293;BME280;37377;45.186;9.778;2024-01-10T07:19:17;102424.25;;;2.77;72.60
51293;BME280;37377;45.186;9.778;2024-01-10T07:21:50;102416.41;;;2.80;72.52
51293;BME280;37377;45.186;9.778;2024-01-10T07:24:26;102420.53;;;2.89;73.20
51293;BME280;37377;45.186;9.778;2024-01-10T07:26:54;102429.44;;;3.17;71.93
51293;BME280;37377;45.186;9.778;2024-01-10T07:29:21;102423.19;;;3.27;70.22
51293;BME280;37377;45.186;9.778;2024-01-10T07:31:48;102424.81;;;3.31;66.27
51293;BME280;37377;45.186;9.778;2024-01-10T07:34:22;102415.50;;;3.23;66.64
51293;BME280;37377;45.186;9.778;2024-01-10T07:36:57;102429.91;;;3.34;66.03
51293;BME280;37377;45.186;9.778;2024-01-10T07:39:27;102433.81;;;3.52;65.95
51293;BME280;37377;45.186;9.778;2024-01-10T07:41:58;102426.13;;;3.49;66.31
51293;BME280;37377;45.186;9.778;2024-01-10T07:44:26;102432.97;;;3.52;66.74
51293;BME280;37377;45.186;9.778;2024-01-10T07:46:55;102430.03;;;3.67;66.51
51293;BME280;37377;45.186;9.778;2024-01-10T07:49:25;102440.56;;;3.96;64.36
51293;BME280;37377;45.186;9.778;2024-01-10T07:51:55;102428.00;;;4.15;63.80
51293;BME280;37377;45.186;9.778;2024-01-10T07:54:22;102441.72;;;4.19;62.11
51293;BME280;37377;45.186;9.778;2024-01-10T07:56:49;102441.72;;;4.19;61.71
51293;BME280;37377;45.186;9.778;2024-01-10T07:59:16;102444.84;;;4.32;62.53
51293;BME280;37377;45.186;9.778;2024-01-10T08:01:44;102445.31;;;4.47;61.73
51293;BME280;37377;45.186;9.778;2024-01-10T08:04:20;102457.47;;;4.76;59.70
51293;BME280;37377;45.186;9.778;2024-01-10T08:06:47;102456.09;;;4.65;58.97
51293;BME280;37377;45.186;9.778;2024-01-10T08:09:19;102455.00;;;5.04;57.37
51293;BME280;37377;45.186;9.778;2024-01-10T08:11:46;102461.56;;;4.85;58.04
51293;BME280;37377;45.186;9.778;2024-01-10T08:14:14;102460.19;;;5.04;57.28
51293;BME280;37377;45.186;9.778;2024-01-10T08:16:42;102468.66;;;5.68;57.80
51293;BME280;37377;45.186;9.778;2024-01-10T08:19:13;102461.34;;;5.80;56.28
51293;BME280;37377;45.186;9.778;2024-01-10T08:21:43;102474.09;;;6.15;55.27
51293;BME280;37377;45.186;9.778;2024-01-10T08:24:09;102477.41;;;6.70;54.57
51293;BME280;37377;45.186;9.778;2024-01-10T08:26:36;102472.47;;;7.11;52.77
51293;BME280;37377;45.186;9.778;2024-01-10T08:29:04;102472.53;;;7.55;51.90
51293;BME280;37377;45.186;9.778;2024-01-10T08:31:31;102468.53;;;7.68;51.56
51293;BME280;37377;45.186;9.778;2024-01-10T08:33:58;102472.19;;;7.64;50.38
51293;BME280;37377;45.186;9.778;2024-01-10T08:36:25;102471.81;;;8.37;49.23
51293;BME280;37377;45.186;9.778;2024-01-10T08:38:52;102475.06;;;8.63;48.19
51293;BME280;37377;45.186;9.778;2024-01-10T08:41:20;102473.63;;;8.76;47.75
51293;BME280;37377;45.186;9.778;2024-01-10T08:43:47;102478.22;;;9.10;47.28
51293;BME280;37377;45.186;9.778;2024-01-10T08:46:14;102476.44;;;9.11;47.20
51293;BME280;37377;45.186;9.778;2024-01-10T08:48:42;102479.50;;;9.00;47.36
51293;BME280;37377;45.186;9.778;2024-01-10T08:51:09;102482.88;;;8.83;47.53
51293;BME280;37377;45.186;9.778;2024-01-10T08:53:37;102486.56;;;8.38;47.44
51293;BME280;37377;45.186;9.778;2024-01-10T08:56:04;102486.22;;;8.04;48.44
51293;BME280;37377;45.186;9.778;2024-01-10T08:58:31;102483.94;;;8.38;48.64
51293;BME280;37377;45.186;9.778;2024-01-10T09:00:58;102490.13;;;8.58;47.76
51293;BME280;37377;45.186;9.778;2024-01-10T09:03:29;102487.66;;;9.13;47.23
51293;BME280;37377;45.186;9.778;2024-01-10T09:05:56;102496.19;;;7.94;48.55
51293;BME280;37377;45.186;9.778;2024-01-10T09:08:36;102498.97;;;8.54;47.55
51293;BME280;37377;45.186;9.778;2024-01-10T09:11:03;102503.81;;;8.42;48.80
51293;BME280;37377;45.186;9.778;2024-01-10T09:13:30;102507.41;;;9.20;47.28
51293;BME280;37377;45.186;9.778;2024-01-10T09:15:59;102511.56;;;8.85;48.37
51293;BME280;37377;45.186;9.778;2024-01-10T09:18:26;102513.69;;;9.34;46.28
51293;BME280;37377;45.186;9.778;2024-01-10T09:20:53;102509.19;;;10.29;43.69
51293;BME280;37377;45.186;9.778;2024-01-10T09:23:26;102518.28;;;10.39;44.05
51293;BME280;37377;45.186;9.778;2024-01-10T09:26:00;102516.53;;;9.30;45.20
51293;BME280;37377;45.186;9.778;2024-01-10T09:28:27;102516.06;;;8.81;46.34
51293;BME280;37377;45.186;9.778;2024-01-10T09:30:54;102517.50;;;6.66;51.48
51293;BME280;37377;45.186;9.778;2024-01-10T09:33:27;102517.97;;;7.26;49.80
51293;BME280;37377;45.186;9.778;2024-01-10T09:35:54;102522.28;;;7.94;48.34
51293;BME280;37377;45.186;9.778;2024-01-10T09:38:25;102524.13;;;8.14;47.85
51293;BME280;37377;45.186;9.778;2024-01-10T09:40:57;102520.09;;;7.15;49.75
51293;BME280;37377;45.186;9.778;2024-01-10T09:43:30;102528.66;;;7.42;50.26
51293;BME280;37377;45.186;9.778;2024-01-10T09:46:01;102527.28;;;6.85;51.85
51293;BME280;37377;45.186;9.778;2024-01-10T09:48:32;102523.94;;;6.30;54.39
51293;BME280;37377;45.186;9.778;2024-01-10T09:51:00;102531.41;;;6.90;52.06
51293;BME280;37377;45.186;9.778;2024-01-10T09:53:31;102532.00;;;6.73;52.60
51293;BME280;37377;45.186;9.778;2024-01-10T09:56:03;102524.19;;;6.73;52.76
51293;BME280;37377;45.186;9.778;2024-01-10T09:58:35;102523.72;;;6.36;54.34
51293;BME280;37377;45.186;9.778;2024-01-10T10:01:09;102530.97;;;6.77;53.43
51293;BME280;37377;45.186;9.778;2024-01-10T10:03:45;102525.94;;;7.21;51.30
51293;BME280;37377;45.186;9.778;2024-01-10T10:06:12;102529.31;;;5.97;52.48
51293;BME280;37377;45.186;9.778;2024-01-10T10:08:42;102530.00;;;6.81;50.47
51293;BME280;37377;45.186;9.778;2024-01-10T10:11:13;102527.63;;;7.69;48.95
51293;BME280;37377;45.186;9.778;2024-01-10T10:13:42;102525.16;;;7.19;49.74
51293;BME280;37377;45.186;9.778;2024-01-10T10:16:09;102530.03;;;6.02;51.74
51293;BME280;37377;45.186;9.778;2024-01-10T10:18:36;102535.03;;;6.35;51.30
51293;BME280;37377;45.186;9.778;2024-01-10T10:21:07;102536.72;;;6.36;51.22
51293;BME280;37377;45.186;9.778;2024-01-10T10:23:40;102533.53;;;7.04;50.56
51293;BME280;37377;45.186;9.778;2024-01-10T10:26:14;102522.44;;;7.22;49.03
51293;BME280;37377;45.186;9.778;2024-01-10T10:28:51;102531.44;;;7.60;47.67
51293;BME280;37377;45.186;9.778;2024-01-10T10:31:21;102527.63;;;7.69;48.15
51293;BME280;37377;45.186;9.778;2024-01-10T10:33:49;102533.94;;;7.40;48.19
51293;BME280;37377;45.186;9.778;2024-01-10T10:36:20;102527.63;;;7.22;49.24
51293;BME280;37377;45.186;9.778;2024-01-10T10:38:48;102535.72;;;7.15;49.50
51293;BME280;37377;45.186;9.778;2024-01-10T10:41:16;102534.34;;;7.29;48.59
51293;BME280;37377;45.186;9.778;2024-01-10T10:43:54;102532.66;;;7.03;49.07
51293;BME280;37377;45.186;9.778;2024-01-10T10:46:23;102530.31;;;6.72;50.06
51293;BME280;37377;45.186;9.778;2024-01-10T10:48:51;102534.63;;;6.97;50.62
51293;BME280;37377;45.186;9.778;2024-01-10T10:51:27;102521.59;;;7.22;49.44
51293;BME280;37377;45.186;9.778;2024-01-10T10:53:57;102520.09;;;7.15;49.26
51293;BME280;37377;45.186;9.778;2024-01-10T10:56:29;102519.94;;;7.43;49.24
51293;BME280;37377;45.186;9.778;2024-01-10T10:58:59;102509.78;;;7.80;47.59
51293;BME280;37377;45.186;9.778;2024-01-10T11:01:28;102513.66;;;7.92;46.75
51293;BME280;37377;45.186;9.778;2024-01-10T11:03:59;102520.22;;;7.80;46.31
51293;BME280;37377;45.186;9.778;2024-01-10T11:06:26;102523.25;;;7.91;46.63
51293;BME280;37377;45.186;9.778;2024-01-10T11:08:59;102528.53;;;8.12;46.04
51293;BME280;37377;45.186;9.778;2024-01-10T11:14:39;102518.72;;;7.97;45.14
51293;BME280;37377;45.186;9.778;2024-01-10T11:17:26;102513.63;;;7.72;46.61
51293;BME280;37377;45.186;9.778;2024-01-10T11:20:20;102521.78;;;7.84;46.54
51293;BME280;37377;45.186;9.778;2024-01-10T11:25:28;102514.66;;;7.21;47.55
51293;BME280;37377;45.186;9.778;2024-01-10T11:27:56;102514.97;;;7.36;46.89
51293;BME280;37377;45.186;9.778;2024-01-10T11:30:33;102500.56;;;7.72;46.32
51293;BME280;37377;45.186;9.778;2024-01-10T11:33:39;102499.81;;;7.68;46.40
51293;BME280;37377;45.186;9.778;2024-01-10T11:36:19;102499.94;;;7.43;47.76
51293;BME280;37377;45.186;9.778;2024-01-10T11:41:57;102491.47;;;7.60;46.77
51293;BME280;37377;45.186;9.778;2024-01-10T11:44:30;102485.16;;;7.65;46.99
51293;BME280;37377;45.186;9.778;2024-01-10T11:47:32;102482.97;;;7.77;46.36
51293;BME280;37377;45.186;9.778;2024-01-10T11:50:57;102469.00;;;8.00;45.71
51293;BME280;37377;45.186;9.778;2024-01-10T11:53:50;102471.31;;;7.85;46.52
51293;BME280;37377;45.186;9.778;2024-01-10T11:56:20;102467.50;;;7.72;46.52
51293;BME280;37377;45.186;9.778;2024-01-10T11:59:03;102472.91;;;7.46;47.68
51293;BME280;37377;45.186;9.778;2024-01-10T12:01:42;102458.66;;;7.54;48.22
51293;BME280;37377;45.186;9.778;2024-01-10T12:04:12;102454.63;;;7.67;46.92
51293;BME280;37377;45.186;9.778;2024-01-10T12:07:05;102455.38;;;7.71;46.59
51293;BME280;37377;45.186;9.778;2024-01-10T12:10:24;102452.16;;;7.43;47.83
51293;BME280;37377;45.186;9.778;2024-01-10T12:13:05;102447.19;;;7.36;48.96
51293;BME280;37377;45.186;9.778;2024-01-10T12:15:48;102449.63;;;7.63;48.34
51293;BME280;37377;45.186;9.778;2024-01-10T12:18:28;102440.16;;;7.38;48.59
51293;BME280;37377;45.186;9.778;2024-01-10T12:21:26;102440.03;;;7.63;48.87
51293;BME280;37377;45.186;9.778;2024-01-10T12:23:57;102439.06;;;7.66;49.07
51293;BME280;37377;45.186;9.778;2024-01-10T12:27:18;102431.66;;;7.77;48.19
51293;BME280;37377;45.186;9.778;2024-01-10T12:30:25;102435.53;;;7.67;48.22
51293;BME280;37377;45.186;9.778;2024-01-10T12:33:01;102430.25;;;7.90;47.47
51293;BME280;37377;45.186;9.778;2024-01-10T12:36:08;102429.06;;;7.55;47.24
51293;BME280;37377;45.186;9.778;2024-01-10T12:38:38;102428.09;;;7.36;47.62
51293;BME280;37377;45.186;9.778;2024-01-10T12:41:08;102428.75;;;7.63;47.81
51293;BME280;37377;45.186;9.778;2024-01-10T12:43:55;102424.16;;;7.26;49.23
51293;BME280;37377;45.186;9.778;2024-01-10T12:46:33;102426.25;;;6.93;50.12
51293;BME280;37377;45.186;9.778;2024-01-10T12:49:07;102421.09;;;6.43;50.60
51293;BME280;37377;45.186;9.778;2024-01-10T12:51:37;102418.66;;;7.10;49.07
51293;BME280;37377;45.186;9.778;2024-01-10T12:54:04;102420.91;;;7.41;47.18
51293;BME280;37377;45.186;9.778;2024-01-10T12:56:34;102418.94;;;7.48;46.37
51293;BME280;37377;45.186;9.778;2024-01-10T12:59:02;102416.25;;;7.49;46.75
51293;BME280;37377;45.186;9.778;2024-01-10T13:01:33;102414.09;;;7.60;46.61
51293;BME280;37377;45.186;9.778;2024-01-10T13:04:00;102418.88;;;7.27;47.56
51293;BME280;37377;45.186;9.778;2024-01-10T13:06:36;102404.34;;;7.44;48.76
51293;BME280;37377;45.186;9.778;2024-01-10T13:09:26;102412.38;;;7.59;48.00
51293;BME280;37377;45.186;9.778;2024-01-10T13:11:53;102398.69;;;7.54;48.11
51293;BME280;37377;45.186;9.778;2024-01-10T13:14:51;102398.75;;;7.53;46.98
51293;BME280;37377;45.186;9.778;2024-01-10T13:17:18;102390.09;;;7.52;47.24
51293;BME280;37377;45.186;9.778;2024-01-10T13:20:45;102396.56;;;7.64;46.83
51293;BME280;37377;45.186;9.778;2024-01-10T13:23:17;102396.84;;;7.56;47.37
51293;BME280;37377;45.186;9.778;2024-01-10T13:26:15;102390.19;;;7.71;46.57
51293;BME280;37377;45.186;9.778;2024-01-10T13:28:43;102387.28;;;7.57;46.18
51293;BME280;37377;45.186;9.778;2024-01-10T13:31:39;102389.41;;;7.69;46.63
51293;BME280;37377;45.186;9.778;2024-01-10T13:34:35;102385.19;;;7.65;47.12
51293;BME280;37377;45.186;9.778;2024-01-10T13:37:02;102382.56;;;7.45;48.24
51293;BME280;37377;45.186;9.778;2024-01-10T13:39:58;102374.59;;;7.48;46.43
51293;BME280;37377;45.186;9.778;2024-01-10T13:42:43;102385.81;;;7.50;47.50
51293;BME280;37377;45.186;9.778;2024-01-10T13:45:21;102382.44;;;7.48;47.32
51293;BME280;37377;45.186;9.778;2024-01-10T13:48:02;102376.22;;;7.50;47.25
51293;BME280;37377;45.186;9.778;2024-01-10T13:50:30;102378.50;;;7.37;47.91
51293;BME280;37377;45.186;9.778;2024-01-10T13:53:05;102382.25;;;7.30;47.35
51293;BME280;37377;45.186;9.778;2024-01-10T13:55:47;102370.53;;;7.41;47.38
51293;BME280;37377;45.186;9.778;2024-01-10T13:58:17;102374.53;;;7.05;47.91
51293;BME280;37377;45.186;9.778;2024-01-10T14:00:51;102368.84;;;7.39;49.49
51293;BME280;37377;45.186;9.778;2024-01-10T14:03:52;102373.34;;;7.36;47.46
51293;BME280;37377;45.186;9.778;2024-01-10T14:06:28;102383.28;;;7.26;47.91
51293;BME280;37377;45.186;9.778;2024-01-10T14:10:18;102376.25;;;7.28;48.03